Destinations Sandnessjøen Airport (Stokka)

Sandnessjøen Airport (Stokka) (ENST / SSJ)

Flights to Sandnessjøen Airport (Stokka)

Flight number From ETE Dispatch
SPY-3115 ENVA Trondheim Airport Værnes 00:55

Flights from Sandnessjøen Airport (Stokka)

Flight number To ETE Dispatch
SPY-3116 ENVA Trondheim Airport Værnes 00:55
About

Sandnessjøen Airport (Stokka) facts

Sandnessjøen Airport (Stokka) is located in Sandnessjoen at an elevation of 17.1 meters or 56 feet.

Currently, Speedy Airlines serves 2 flights to and from Sandnessjøen Airport (Stokka).

Detailed airport info

Route map

Weather

Current weather

METAR

METAR

Metar data retrieved Sunday, 21 July 2024 at 20:25 UTC

ENST 211950Z 13010KT 070V200 CAVOK 24/13 Q1007 RMK WIND 300FT 12019KT
Wind Temperature
10 kt 24c